sensor_id;sensor_type;location;lat;lon;timestamp;P1;durP1;ratioP1;P2;durP2;ratioP2
10643;SDS011;5370;50.132;8.626;2024-01-15T00:01:29;54.27;;;20.37;;
10643;SDS011;5370;50.132;8.626;2024-01-15T00:03:54;40.40;;;17.63;;
10643;SDS011;5370;50.132;8.626;2024-01-15T00:06:20;42.53;;;17.90;;
10643;SDS011;5370;50.132;8.626;2024-01-15T00:08:46;32.07;;;15.60;;
10643;SDS011;5370;50.132;8.626;2024-01-15T00:11:11;32.47;;;16.83;;
10643;SDS011;5370;50.132;8.626;2024-01-15T00:13:37;41.10;;;17.40;;
10643;SDS011;5370;50.132;8.626;2024-01-15T00:16:03;34.77;;;16.73;;
10643;SDS011;5370;50.132;8.626;2024-01-15T00:18:29;121.10;;;29.23;;
10643;SDS011;5370;50.132;8.626;2024-01-15T00:20:55;30.73;;;16.37;;
10643;SDS011;5370;50.132;8.626;2024-01-15T00:23:21;34.40;;;16.80;;
10643;SDS011;5370;50.132;8.626;2024-01-15T00:25:47;86.67;;;25.63;;
10643;SDS011;5370;50.132;8.626;2024-01-15T00:28:12;103.47;;;28.63;;
10643;SDS011;5370;50.132;8.626;2024-01-15T00:30:38;74.70;;;22.93;;
10643;SDS011;5370;50.132;8.626;2024-01-15T00:33:03;29.53;;;15.23;;
10643;SDS011;5370;50.132;8.626;2024-01-15T00:35:29;33.53;;;14.87;;
10643;SDS011;5370;50.132;8.626;2024-01-15T00:37:55;34.23;;;14.17;;
10643;SDS011;5370;50.132;8.626;2024-01-15T00:40:20;29.03;;;15.53;;
10643;SDS011;5370;50.132;8.626;2024-01-15T00:42:46;28.77;;;16.40;;
10643;SDS011;5370;50.132;8.626;2024-01-15T00:45:11;30.33;;;14.77;;
10643;SDS011;5370;50.132;8.626;2024-01-15T00:47:37;31.40;;;16.13;;
10643;SDS011;5370;50.132;8.626;2024-01-15T00:50:02;37.00;;;13.23;;
10643;SDS011;5370;50.132;8.626;2024-01-15T00:52:29;29.47;;;16.37;;
10643;SDS011;5370;50.132;8.626;2024-01-15T00:54:55;33.03;;;15.23;;
10643;SDS011;5370;50.132;8.626;2024-01-15T00:57:20;29.97;;;15.50;;
10643;SDS011;5370;50.132;8.626;2024-01-15T00:59:46;36.70;;;16.23;;
10643;SDS011;5370;50.132;8.626;2024-01-15T01:02:12;29.80;;;15.37;;
10643;SDS011;5370;50.132;8.626;2024-01-15T01:04:37;36.60;;;18.00;;
10643;SDS011;5370;50.132;8.626;2024-01-15T01:07:03;34.90;;;15.60;;
10643;SDS011;5370;50.132;8.626;2024-01-15T01:09:29;29.53;;;15.40;;
10643;SDS011;5370;50.132;8.626;2024-01-15T01:11:55;28.83;;;15.50;;
10643;SDS011;5370;50.132;8.626;2024-01-15T01:14:21;33.03;;;15.10;;
10643;SDS011;5370;50.132;8.626;2024-01-15T01:16:47;38.17;;;15.93;;
10643;SDS011;5370;50.132;8.626;2024-01-15T01:19:12;29.17;;;15.87;;
10643;SDS011;5370;50.132;8.626;2024-01-15T01:21:38;33.80;;;17.47;;
10643;SDS011;5370;50.132;8.626;2024-01-15T01:24:04;28.00;;;16.00;;
10643;SDS011;5370;50.132;8.626;2024-01-15T01:26:30;29.33;;;15.23;;
10643;SDS011;5370;50.132;8.626;2024-01-15T01:28:55;27.43;;;14.27;;
10643;SDS011;5370;50.132;8.626;2024-01-15T01:31:21;33.57;;;16.23;;
10643;SDS011;5370;50.132;8.626;2024-01-15T01:33:46;27.40;;;15.87;;
10643;SDS011;5370;50.132;8.626;2024-01-15T01:36:12;35.60;;;18.50;;
10643;SDS011;5370;50.132;8.626;2024-01-15T01:38:37;33.73;;;16.47;;
10643;SDS011;5370;50.132;8.626;2024-01-15T01:41:03;27.67;;;15.40;;
10643;SDS011;5370;50.132;8.626;2024-01-15T01:43:28;32.70;;;16.60;;
10643;SDS011;5370;50.132;8.626;2024-01-15T01:45:54;26.63;;;14.43;;
10643;SDS011;5370;50.132;8.626;2024-01-15T01:48:23;28.90;;;15.17;;
10643;SDS011;5370;50.132;8.626;2024-01-15T01:50:50;29.03;;;15.67;;
10643;SDS011;5370;50.132;8.626;2024-01-15T01:53:18;30.67;;;16.17;;
10643;SDS011;5370;50.132;8.626;2024-01-15T01:55:44;33.53;;;14.67;;
10643;SDS011;5370;50.132;8.626;2024-01-15T01:58:10;29.77;;;14.13;;
10643;SDS011;5370;50.132;8.626;2024-01-15T02:00:36;29.27;;;14.67;;
10643;SDS011;5370;50.132;8.626;2024-01-15T02:03:02;28.93;;;15.27;;
10643;SDS011;5370;50.132;8.626;2024-01-15T02:05:28;25.43;;;13.90;;
10643;SDS011;5370;50.132;8.626;2024-01-15T02:07:55;30.00;;;15.70;;
10643;SDS011;5370;50.132;8.626;2024-01-15T02:10:21;27.80;;;14.97;;
10643;SDS011;5370;50.132;8.626;2024-01-15T02:12:46;30.70;;;14.87;;
10643;SDS011;5370;50.132;8.626;2024-01-15T02:15:13;27.77;;;13.97;;
10643;SDS011;5370;50.132;8.626;2024-01-15T02:20:33;35.47;;;17.00;;
10643;SDS011;5370;50.132;8.626;2024-01-15T02:23:08;26.40;;;15.23;;
10643;SDS011;5370;50.132;8.626;2024-01-15T02:25:35;29.80;;;15.30;;
10643;SDS011;5370;50.132;8.626;2024-01-15T02:28:02;30.23;;;14.67;;
10643;SDS011;5370;50.132;8.626;2024-01-15T02:30:29;29.40;;;14.60;;
10643;SDS011;5370;50.132;8.626;2024-01-15T02:32:56;31.57;;;14.10;;
10643;SDS011;5370;50.132;8.626;2024-01-15T02:35:21;27.27;;;15.50;;
10643;SDS011;5370;50.132;8.626;2024-01-15T02:37:47;31.20;;;15.53;;
10643;SDS011;5370;50.132;8.626;2024-01-15T02:40:12;25.27;;;13.97;;
10643;SDS011;5370;50.132;8.626;2024-01-15T02:42:38;30.47;;;14.70;;
10643;SDS011;5370;50.132;8.626;2024-01-15T02:45:03;29.17;;;15.37;;
10643;SDS011;5370;50.132;8.626;2024-01-15T02:47:29;26.70;;;13.77;;
10643;SDS011;5370;50.132;8.626;2024-01-15T02:49:55;31.77;;;15.37;;
10643;SDS011;5370;50.132;8.626;2024-01-15T02:52:20;30.87;;;15.53;;
10643;SDS011;5370;50.132;8.626;2024-01-15T02:54:46;30.50;;;15.57;;
10643;SDS011;5370;50.132;8.626;2024-01-15T02:57:11;30.50;;;15.43;;
10643;SDS011;5370;50.132;8.626;2024-01-15T02:59:37;26.50;;;14.47;;
10643;SDS011;5370;50.132;8.626;2024-01-15T03:02:03;34.97;;;14.20;;
10643;SDS011;5370;50.132;8.626;2024-01-15T03:04:28;29.33;;;15.23;;
10643;SDS011;5370;50.132;8.626;2024-01-15T03:06:54;28.37;;;14.73;;
10643;SDS011;5370;50.132;8.626;2024-01-15T03:09:19;28.17;;;15.17;;
10643;SDS011;5370;50.132;8.626;2024-01-15T03:11:45;28.60;;;15.73;;
10643;SDS011;5370;50.132;8.626;2024-01-15T03:14:10;30.20;;;15.33;;
10643;SDS011;5370;50.132;8.626;2024-01-15T03:16:36;25.57;;;14.20;;
10643;SDS011;5370;50.132;8.626;2024-01-15T03:19:02;27.40;;;13.87;;
10643;SDS011;5370;50.132;8.626;2024-01-15T03:21:27;25.93;;;14.20;;
10643;SDS011;5370;50.132;8.626;2024-01-15T03:23:53;26.67;;;13.93;;
10643;SDS011;5370;50.132;8.626;2024-01-15T03:26:18;28.33;;;15.03;;
10643;SDS011;5370;50.132;8.626;2024-01-15T03:28:44;31.37;;;13.53;;
10643;SDS011;5370;50.132;8.626;2024-01-15T03:31:09;30.03;;;13.77;;
10643;SDS011;5370;50.132;8.626;2024-01-15T03:33:35;29.37;;;14.60;;
10643;SDS011;5370;50.132;8.626;2024-01-15T03:36:00;24.33;;;13.90;;
10643;SDS011;5370;50.132;8.626;2024-01-15T03:38:27;29.80;;;15.20;;
10643;SDS011;5370;50.132;8.626;2024-01-15T03:40:53;29.03;;;14.90;;
10643;SDS011;5370;50.132;8.626;2024-01-15T03:43:19;26.40;;;14.70;;
10643;SDS011;5370;50.132;8.626;2024-01-15T03:45:44;22.37;;;11.43;;
10643;SDS011;5370;50.132;8.626;2024-01-15T03:48:10;30.23;;;15.10;;
10643;SDS011;5370;50.132;8.626;2024-01-15T03:50:36;23.57;;;12.40;;
10643;SDS011;5370;50.132;8.626;2024-01-15T03:53:02;30.93;;;14.50;;
10643;SDS011;5370;50.132;8.626;2024-01-15T03:55:27;23.90;;;13.87;;
10643;SDS011;5370;50.132;8.626;2024-01-15T03:57:53;27.97;;;13.43;;
10643;SDS011;5370;50.132;8.626;2024-01-15T04:00:18;29.90;;;15.10;;
10643;SDS011;5370;50.132;8.626;2024-01-15T04:02:44;27.77;;;14.03;;
10643;SDS011;5370;50.132;8.626;2024-01-15T04:05:10;29.53;;;14.37;;
10643;SDS011;5370;50.132;8.626;2024-01-15T04:07:35;25.77;;;13.03;;
10643;SDS011;5370;50.132;8.626;2024-01-15T04:10:01;26.23;;;13.73;;
10643;SDS011;5370;50.132;8.626;2024-01-15T04:12:26;28.43;;;14.60;;
10643;SDS011;5370;50.132;8.626;2024-01-15T04:14:52;26.10;;;13.03;;
10643;SDS011;5370;50.132;8.626;2024-01-15T04:17:17;24.27;;;12.83;;
10643;SDS011;5370;50.132;8.626;2024-01-15T04:19:43;21.80;;;13.00;;
10643;SDS011;5370;50.132;8.626;2024-01-15T04:22:09;30.30;;;13.63;;
10643;SDS011;5370;50.132;8.626;2024-01-15T04:24:34;24.83;;;13.27;;
10643;SDS011;5370;50.132;8.626;2024-01-15T04:27:00;24.00;;;12.43;;
10643;SDS011;5370;50.132;8.626;2024-01-15T04:29:26;23.13;;;13.27;;
10643;SDS011;5370;50.132;8.626;2024-01-15T04:31:51;21.33;;;11.90;;
10643;SDS011;5370;50.132;8.626;2024-01-15T04:34:17;26.83;;;12.30;;
10643;SDS011;5370;50.132;8.626;2024-01-15T04:36:43;22.57;;;12.23;;
10643;SDS011;5370;50.132;8.626;2024-01-15T04:39:08;23.00;;;12.83;;
10643;SDS011;5370;50.132;8.626;2024-01-15T04:41:34;26.13;;;13.47;;
10643;SDS011;5370;50.132;8.626;2024-01-15T04:43:59;24.23;;;12.13;;
10643;SDS011;5370;50.132;8.626;2024-01-15T04:46:26;27.80;;;13.13;;
10643;SDS011;5370;50.132;8.626;2024-01-15T04:48:51;24.23;;;12.73;;
10643;SDS011;5370;50.132;8.626;2024-01-15T04:51:17;28.10;;;13.17;;
10643;SDS011;5370;50.132;8.626;2024-01-15T04:53:42;22.47;;;11.90;;
10643;SDS011;5370;50.132;8.626;2024-01-15T04:56:08;24.67;;;13.00;;
10643;SDS011;5370;50.132;8.626;2024-01-15T04:58:33;23.97;;;13.20;;
10643;SDS011;5370;50.132;8.626;2024-01-15T05:00:59;26.50;;;12.77;;
10643;SDS011;5370;50.132;8.626;2024-01-15T05:03:24;22.47;;;11.60;;
10643;SDS011;5370;50.132;8.626;2024-01-15T05:05:50;22.90;;;13.00;;
10643;SDS011;5370;50.132;8.626;2024-01-15T05:08:15;24.13;;;12.17;;
10643;SDS011;5370;50.132;8.626;2024-01-15T05:10:41;24.13;;;13.50;;
10643;SDS011;5370;50.132;8.626;2024-01-15T05:13:06;26.00;;;12.97;;
10643;SDS011;5370;50.132;8.626;2024-01-15T05:15:32;26.43;;;12.87;;
10643;SDS011;5370;50.132;8.626;2024-01-15T05:17:57;23.73;;;12.20;;
10643;SDS011;5370;50.132;8.626;2024-01-15T05:20:23;25.23;;;12.33;;
10643;SDS011;5370;50.132;8.626;2024-01-15T05:22:48;26.70;;;12.47;;
10643;SDS011;5370;50.132;8.626;2024-01-15T05:25:14;23.83;;;13.10;;
10643;SDS011;5370;50.132;8.626;2024-01-15T05:27:39;22.40;;;11.97;;
10643;SDS011;5370;50.132;8.626;2024-01-15T05:30:05;22.80;;;12.77;;
10643;SDS011;5370;50.132;8.626;2024-01-15T05:32:31;24.80;;;12.97;;
10643;SDS011;5370;50.132;8.626;2024-01-15T05:34:57;26.97;;;13.80;;
10643;SDS011;5370;50.132;8.626;2024-01-15T05:37:22;21.93;;;12.83;;
10643;SDS011;5370;50.132;8.626;2024-01-15T05:39:48;24.43;;;12.53;;
10643;SDS011;5370;50.132;8.626;2024-01-15T05:42:13;24.50;;;12.53;;
10643;SDS011;5370;50.132;8.626;2024-01-15T05:44:39;25.60;;;12.93;;
10643;SDS011;5370;50.132;8.626;2024-01-15T05:47:04;24.73;;;12.87;;
10643;SDS011;5370;50.132;8.626;2024-01-15T05:49:30;22.57;;;12.60;;
10643;SDS011;5370;50.132;8.626;2024-01-15T05:51:55;24.77;;;12.83;;
10643;SDS011;5370;50.132;8.626;2024-01-15T05:54:21;24.80;;;12.93;;
10643;SDS011;5370;50.132;8.626;2024-01-15T05:56:46;29.33;;;12.43;;
10643;SDS011;5370;50.132;8.626;2024-01-15T05:59:12;23.17;;;11.83;;
10643;SDS011;5370;50.132;8.626;2024-01-15T06:01:37;24.97;;;12.30;;
10643;SDS011;5370;50.132;8.626;2024-01-15T06:04:03;25.87;;;13.37;;
10643;SDS011;5370;50.132;8.626;2024-01-15T06:06:28;24.60;;;12.53;;
10643;SDS011;5370;50.132;8.626;2024-01-15T06:08:54;27.57;;;12.90;;
10643;SDS011;5370;50.132;8.626;2024-01-15T06:11:20;25.20;;;13.27;;
10643;SDS011;5370;50.132;8.626;2024-01-15T06:13:45;25.03;;;13.17;;
10643;SDS011;5370;50.132;8.626;2024-01-15T06:16:14;26.53;;;13.77;;
10643;SDS011;5370;50.132;8.626;2024-01-15T06:18:41;24.87;;;13.33;;
10643;SDS011;5370;50.132;8.626;2024-01-15T06:21:06;24.97;;;13.63;;
10643;SDS011;5370;50.132;8.626;2024-01-15T06:23:32;23.93;;;12.73;;
10643;SDS011;5370;50.132;8.626;2024-01-15T06:25:57;26.60;;;13.67;;
10643;SDS011;5370;50.132;8.626;2024-01-15T06:28:23;26.30;;;13.63;;
10643;SDS011;5370;50.132;8.626;2024-01-15T06:30:48;26.00;;;13.43;;
10643;SDS011;5370;50.132;8.626;2024-01-15T06:33:14;27.13;;;13.97;;
10643;SDS011;5370;50.132;8.626;2024-01-15T06:35:39;27.70;;;14.63;;
10643;SDS011;5370;50.132;8.626;2024-01-15T06:38:05;26.80;;;13.27;;
10643;SDS011;5370;50.132;8.626;2024-01-15T06:40:30;67.37;;;36.27;;
10643;SDS011;5370;50.132;8.626;2024-01-15T06:42:56;44.90;;;24.23;;
10643;SDS011;5370;50.132;8.626;2024-01-15T06:45:21;50.70;;;28.20;;
10643;SDS011;5370;50.132;8.626;2024-01-15T06:47:47;27.03;;;15.77;;
10643;SDS011;5370;50.132;8.626;2024-01-15T06:50:12;28.93;;;15.20;;
10643;SDS011;5370;50.132;8.626;2024-01-15T06:52:38;27.77;;;14.30;;
10643;SDS011;5370;50.132;8.626;2024-01-15T06:55:04;28.73;;;14.47;;
10643;SDS011;5370;50.132;8.626;2024-01-15T06:57:31;26.13;;;13.97;;
10643;SDS011;5370;50.132;8.626;2024-01-15T06:59:56;24.33;;;13.37;;
10643;SDS011;5370;50.132;8.626;2024-01-15T07:02:22;24.53;;;13.47;;
10643;SDS011;5370;50.132;8.626;2024-01-15T07:04:47;28.63;;;14.50;;
10643;SDS011;5370;50.132;8.626;2024-01-15T07:07:13;30.20;;;14.47;;
10643;SDS011;5370;50.132;8.626;2024-01-15T07:09:38;29.57;;;15.90;;
10643;SDS011;5370;50.132;8.626;2024-01-15T07:12:04;31.90;;;14.90;;
10643;SDS011;5370;50.132;8.626;2024-01-15T07:14:29;23.13;;;14.10;;
10643;SDS011;5370;50.132;8.626;2024-01-15T07:16:55;23.43;;;12.77;;
10643;SDS011;5370;50.132;8.626;2024-01-15T07:19:20;28.90;;;14.43;;
10643;SDS011;5370;50.132;8.626;2024-01-15T07:21:46;29.33;;;14.60;;
10643;SDS011;5370;50.132;8.626;2024-01-15T07:24:11;25.77;;;14.30;;
10643;SDS011;5370;50.132;8.626;2024-01-15T07:26:37;26.57;;;14.47;;
10643;SDS011;5370;50.132;8.626;2024-01-15T07:29:02;23.97;;;13.77;;
10643;SDS011;5370;50.132;8.626;2024-01-15T07:31:28;25.80;;;13.27;;
10643;SDS011;5370;50.132;8.626;2024-01-15T07:33:53;30.20;;;15.90;;
10643;SDS011;5370;50.132;8.626;2024-01-15T07:36:19;28.90;;;14.50;;
10643;SDS011;5370;50.132;8.626;2024-01-15T07:38:44;30.83;;;15.13;;
10643;SDS011;5370;50.132;8.626;2024-01-15T07:41:10;24.60;;;13.47;;
10643;SDS011;5370;50.132;8.626;2024-01-15T07:43:36;36.07;;;14.83;;
10643;SDS011;5370;50.132;8.626;2024-01-15T07:46:03;26.30;;;13.47;;
10643;SDS011;5370;50.132;8.626;2024-01-15T07:48:29;24.80;;;13.93;;
10643;SDS011;5370;50.132;8.626;2024-01-15T07:50:54;28.60;;;14.33;;
10643;SDS011;5370;50.132;8.626;2024-01-15T07:53:20;28.67;;;13.67;;
10643;SDS011;5370;50.132;8.626;2024-01-15T07:55:45;25.00;;;13.40;;
10643;SDS011;5370;50.132;8.626;2024-01-15T07:58:11;26.10;;;13.93;;
10643;SDS011;5370;50.132;8.626;2024-01-15T08:00:37;28.00;;;13.67;;
10643;SDS011;5370;50.132;8.626;2024-01-15T08:03:02;29.23;;;14.60;;
10643;SDS011;5370;50.132;8.626;2024-01-15T08:05:28;28.03;;;14.53;;
10643;SDS011;5370;50.132;8.626;2024-01-15T08:07:53;26.10;;;14.63;;
10643;SDS011;5370;50.132;8.626;2024-01-15T08:10:19;24.73;;;14.40;;
10643;SDS011;5370;50.132;8.626;2024-01-15T08:12:45;24.40;;;14.47;;
10643;SDS011;5370;50.132;8.626;2024-01-15T08:15:10;27.27;;;14.60;;
10643;SDS011;5370;50.132;8.626;2024-01-15T08:17:36;28.70;;;15.10;;
10643;SDS011;5370;50.132;8.626;2024-01-15T08:20:01;28.40;;;13.93;;
10643;SDS011;5370;50.132;8.626;2024-01-15T08:22:27;29.73;;;14.97;;
10643;SDS011;5370;50.132;8.626;2024-01-15T08:24:53;23.63;;;13.70;;
10643;SDS011;5370;50.132;8.626;2024-01-15T08:27:20;30.43;;;15.00;;
10643;SDS011;5370;50.132;8.626;2024-01-15T08:29:45;25.50;;;14.77;;
10643;SDS011;5370;50.132;8.626;2024-01-15T08:32:11;25.47;;;14.70;;
10643;SDS011;5370;50.132;8.626;2024-01-15T08:34:39;30.60;;;14.63;;
10643;SDS011;5370;50.132;8.626;2024-01-15T08:37:05;28.07;;;13.87;;
10643;SDS011;5370;50.132;8.626;2024-01-15T08:39:30;28.20;;;15.40;;
10643;SDS011;5370;50.132;8.626;2024-01-15T08:41:56;26.93;;;15.60;;
10643;SDS011;5370;50.132;8.626;2024-01-15T08:44:21;25.33;;;13.73;;
10643;SDS011;5370;50.132;8.626;2024-01-15T08:46:47;27.53;;;13.87;;
10643;SDS011;5370;50.132;8.626;2024-01-15T08:49:12;28.30;;;14.03;;
10643;SDS011;5370;50.132;8.626;2024-01-15T08:51:38;23.60;;;13.17;;
10643;SDS011;5370;50.132;8.626;2024-01-15T08:54:04;26.70;;;14.67;;
10643;SDS011;5370;50.132;8.626;2024-01-15T08:56:29;27.27;;;13.30;;
10643;SDS011;5370;50.132;8.626;2024-01-15T08:58:55;24.00;;;12.97;;
10643;SDS011;5370;50.132;8.626;2024-01-15T09:01:20;27.40;;;14.77;;
10643;SDS011;5370;50.132;8.626;2024-01-15T09:03:46;26.03;;;14.37;;
10643;SDS011;5370;50.132;8.626;2024-01-15T09:06:13;28.70;;;14.13;;
10643;SDS011;5370;50.132;8.626;2024-01-15T09:08:38;24.23;;;13.90;;
10643;SDS011;5370;50.132;8.626;2024-01-15T09:11:04;24.57;;;13.20;;
10643;SDS011;5370;50.132;8.626;2024-01-15T09:13:30;25.80;;;13.20;;
10643;SDS011;5370;50.132;8.626;2024-01-15T09:15:56;25.17;;;13.57;;
10643;SDS011;5370;50.132;8.626;2024-01-15T09:18:21;25.50;;;12.67;;
10643;SDS011;5370;50.132;8.626;2024-01-15T09:20:47;27.87;;;14.10;;
10643;SDS011;5370;50.132;8.626;2024-01-15T09:23:12;26.37;;;14.27;;
10643;SDS011;5370;50.132;8.626;2024-01-15T09:25:38;23.93;;;13.27;;
10643;SDS011;5370;50.132;8.626;2024-01-15T09:28:03;23.77;;;12.70;;
10643;SDS011;5370;50.132;8.626;2024-01-15T09:30:29;22.17;;;13.07;;
10643;SDS011;5370;50.132;8.626;2024-01-15T09:32:55;23.00;;;11.80;;
10643;SDS011;5370;50.132;8.626;2024-01-15T09:35:20;25.27;;;13.90;;
10643;SDS011;5370;50.132;8.626;2024-01-15T09:37:46;20.97;;;13.23;;
10643;SDS011;5370;50.132;8.626;2024-01-15T09:40:12;21.50;;;11.87;;
10643;SDS011;5370;50.132;8.626;2024-01-15T09:42:42;20.47;;;11.90;;
10643;SDS011;5370;50.132;8.626;2024-01-15T09:45:09;21.10;;;11.97;;
10643;SDS011;5370;50.132;8.626;2024-01-15T09:47:35;22.70;;;12.63;;
10643;SDS011;5370;50.132;8.626;2024-01-15T09:50:02;21.97;;;12.90;;
10643;SDS011;5370;50.132;8.626;2024-01-15T09:52:28;18.93;;;11.77;;
10643;SDS011;5370;50.132;8.626;2024-01-15T09:54:55;21.63;;;11.93;;
10643;SDS011;5370;50.132;8.626;2024-01-15T09:57:23;17.90;;;10.53;;
10643;SDS011;5370;50.132;8.626;2024-01-15T09:59:49;17.37;;;10.63;;
10643;SDS011;5370;50.132;8.626;2024-01-15T10:02:16;22.10;;;10.87;;
10643;SDS011;5370;50.132;8.626;2024-01-15T10:04:43;21.13;;;12.07;;
10643;SDS011;5370;50.132;8.626;2024-01-15T10:07:09;17.60;;;10.57;;
10643;SDS011;5370;50.132;8.626;2024-01-15T10:09:39;21.83;;;11.70;;
10643;SDS011;5370;50.132;8.626;2024-01-15T10:12:05;19.33;;;10.50;;
10643;SDS011;5370;50.132;8.626;2024-01-15T10:14:31;16.80;;;9.67;;
10643;SDS011;5370;50.132;8.626;2024-01-15T10:17:00;17.63;;;10.43;;
10643;SDS011;5370;50.132;8.626;2024-01-15T10:19:36;18.70;;;11.20;;
10643;SDS011;5370;50.132;8.626;2024-01-15T10:22:02;19.10;;;10.33;;
10643;SDS011;5370;50.132;8.626;2024-01-15T10:24:28;17.77;;;10.23;;
10643;SDS011;5370;50.132;8.626;2024-01-15T10:27:04;21.37;;;11.03;;
10643;SDS011;5370;50.132;8.626;2024-01-15T10:29:30;19.03;;;9.83;;
10643;SDS011;5370;50.132;8.626;2024-01-15T10:31:56;14.53;;;8.80;;
10643;SDS011;5370;50.132;8.626;2024-01-15T10:34:22;19.33;;;10.60;;
10643;SDS011;5370;50.132;8.626;2024-01-15T10:36:47;17.83;;;10.73;;
10643;SDS011;5370;50.132;8.626;2024-01-15T10:39:20;19.97;;;9.97;;
10643;SDS011;5370;50.132;8.626;2024-01-15T10:41:49;16.57;;;10.60;;
10643;SDS011;5370;50.132;8.626;2024-01-15T10:44:16;14.03;;;7.77;;
10643;SDS011;5370;50.132;8.626;2024-01-15T10:46:42;15.80;;;9.33;;
10643;SDS011;5370;50.132;8.626;2024-01-15T10:49:08;19.57;;;11.13;;
10643;SDS011;5370;50.132;8.626;2024-01-15T10:51:35;19.87;;;10.90;;
10643;SDS011;5370;50.132;8.626;2024-01-15T10:54:01;17.33;;;10.93;;
10643;SDS011;5370;50.132;8.626;2024-01-15T10:56:27;16.07;;;10.33;;
10643;SDS011;5370;50.132;8.626;2024-01-15T10:58:56;19.10;;;10.77;;
10643;SDS011;5370;50.132;8.626;2024-01-15T11:01:22;17.10;;;10.20;;
10643;SDS011;5370;50.132;8.626;2024-01-15T11:03:48;18.20;;;11.13;;
10643;SDS011;5370;50.132;8.626;2024-01-15T11:06:18;14.90;;;10.00;;
10643;SDS011;5370;50.132;8.626;2024-01-15T11:08:50;18.60;;;11.00;;
10643;SDS011;5370;50.132;8.626;2024-01-15T11:11:17;16.27;;;8.97;;
10643;SDS011;5370;50.132;8.626;2024-01-15T11:13:43;15.57;;;10.00;;
10643;SDS011;5370;50.132;8.626;2024-01-15T11:16:12;15.50;;;9.53;;
10643;SDS011;5370;50.132;8.626;2024-01-15T11:18:40;20.43;;;10.60;;
10643;SDS011;5370;50.132;8.626;2024-01-15T11:24:14;18.00;;;9.70;;
10643;SDS011;5370;50.132;8.626;2024-01-15T11:26:43;18.60;;;11.50;;
10643;SDS011;5370;50.132;8.626;2024-01-15T11:34:19;14.57;;;8.10;;
10643;SDS011;5370;50.132;8.626;2024-01-15T11:41:58;16.80;;;9.70;;
10643;SDS011;5370;50.132;8.626;2024-01-15T11:44:25;17.50;;;10.03;;
10643;SDS011;5370;50.132;8.626;2024-01-15T11:46:57;17.57;;;10.77;;
10643;SDS011;5370;50.132;8.626;2024-01-15T11:49:26;16.97;;;9.80;;
10643;SDS011;5370;50.132;8.626;2024-01-15T11:52:18;14.87;;;8.90;;
10643;SDS011;5370;50.132;8.626;2024-01-15T11:54:49;16.33;;;10.00;;
10643;SDS011;5370;50.132;8.626;2024-01-15T11:57:41;14.87;;;9.43;;
10643;SDS011;5370;50.132;8.626;2024-01-15T12:00:26;16.03;;;9.93;;
10643;SDS011;5370;50.132;8.626;2024-01-15T12:02:52;19.57;;;10.23;;
10643;SDS011;5370;50.132;8.626;2024-01-15T12:05:18;16.00;;;9.80;;
10643;SDS011;5370;50.132;8.626;2024-01-15T12:07:45;19.30;;;10.73;;
10643;SDS011;5370;50.132;8.626;2024-01-15T12:10:16;13.97;;;9.53;;
10643;SDS011;5370;50.132;8.626;2024-01-15T12:12:53;15.07;;;9.60;;
10643;SDS011;5370;50.132;8.626;2024-01-15T12:15:22;13.30;;;8.57;;
10643;SDS011;5370;50.132;8.626;2024-01-15T12:17:49;13.87;;;8.27;;
10643;SDS011;5370;50.132;8.626;2024-01-15T12:20:15;15.20;;;9.23;;
10643;SDS011;5370;50.132;8.626;2024-01-15T12:22:42;14.40;;;7.97;;
10643;SDS011;5370;50.132;8.626;2024-01-15T12:25:08;16.97;;;10.47;;
10643;SDS011;5370;50.132;8.626;2024-01-15T12:27:34;12.07;;;8.83;;
10643;SDS011;5370;50.132;8.626;2024-01-15T12:30:00;15.67;;;8.13;;
10643;SDS011;5370;50.132;8.626;2024-01-15T12:32:25;13.33;;;8.57;;
10643;SDS011;5370;50.132;8.626;2024-01-15T12:34:51;12.10;;;8.97;;
10643;SDS011;5370;50.132;8.626;2024-01-15T12:37:20;16.60;;;8.30;;
10643;SDS011;5370;50.132;8.626;2024-01-15T12:39:46;14.37;;;8.47;;
10643;SDS011;5370;50.132;8.626;2024-01-15T12:42:14;12.97;;;8.00;;
10643;SDS011;5370;50.132;8.626;2024-01-15T12:44:41;15.93;;;8.67;;
10643;SDS011;5370;50.132;8.626;2024-01-15T12:47:07;13.70;;;8.20;;
10643;SDS011;5370;50.132;8.626;2024-01-15T12:49:33;14.57;;;7.73;;
10643;SDS011;5370;50.132;8.626;2024-01-15T12:52:01;11.53;;;7.67;;
10643;SDS011;5370;50.132;8.626;2024-01-15T12:54:26;11.47;;;7.73;;
10643;SDS011;5370;50.132;8.626;2024-01-15T12:56:52;18.30;;;7.97;;
10643;SDS011;5370;50.132;8.626;2024-01-15T12:59:18;13.13;;;7.67;;
10643;SDS011;5370;50.132;8.626;2024-01-15T13:01:44;11.73;;;7.20;;
10643;SDS011;5370;50.132;8.626;2024-01-15T13:04:11;9.97;;;6.67;;
10643;SDS011;5370;50.132;8.626;2024-01-15T13:06:37;13.83;;;7.90;;
10643;SDS011;5370;50.132;8.626;2024-01-15T13:09:03;10.03;;;6.90;;
10643;SDS011;5370;50.132;8.626;2024-01-15T13:11:32;11.07;;;7.07;;
10643;SDS011;5370;50.132;8.626;2024-01-15T13:13:58;14.63;;;7.10;;
10643;SDS011;5370;50.132;8.626;2024-01-15T13:16:23;11.73;;;6.73;;
10643;SDS011;5370;50.132;8.626;2024-01-15T13:18:52;10.53;;;7.03;;
10643;SDS011;5370;50.132;8.626;2024-01-15T13:21:17;14.10;;;9.67;;
10643;SDS011;5370;50.132;8.626;2024-01-15T13:23:43;11.20;;;7.13;;
10643;SDS011;5370;50.132;8.626;2024-01-15T13:26:08;10.33;;;6.73;;
10643;SDS011;5370;50.132;8.626;2024-01-15T13:28:34;11.87;;;6.90;;
10643;SDS011;5370;50.132;8.626;2024-01-15T13:30:59;10.27;;;6.87;;
10643;SDS011;5370;50.132;8.626;2024-01-15T13:33:25;12.10;;;6.60;;
10643;SDS011;5370;50.132;8.626;2024-01-15T13:35:51;10.37;;;6.43;;
10643;SDS011;5370;50.132;8.626;2024-01-15T13:38:16;12.23;;;6.80;;
10643;SDS011;5370;50.132;8.626;2024-01-15T13:40:42;12.33;;;6.53;;
10643;SDS011;5370;50.132;8.626;2024-01-15T13:43:10;8.73;;;5.70;;
10643;SDS011;5370;50.132;8.626;2024-01-15T13:45:36;9.87;;;5.43;;
10643;SDS011;5370;50.132;8.626;2024-01-15T13:48:02;9.83;;;6.03;;
10643;SDS011;5370;50.132;8.626;2024-01-15T13:50:30;7.43;;;5.27;;
10643;SDS011;5370;50.132;8.626;2024-01-15T13:52:56;8.77;;;5.43;;
10643;SDS011;5370;50.132;8.626;2024-01-15T13:55:22;8.47;;;5.27;;
10643;SDS011;5370;50.132;8.626;2024-01-15T13:57:47;7.67;;;5.13;;
10643;SDS011;5370;50.132;8.626;2024-01-15T14:00:13;9.43;;;5.60;;
10643;SDS011;5370;50.132;8.626;2024-01-15T14:02:43;6.90;;;4.30;;
10643;SDS011;5370;50.132;8.626;2024-01-15T14:05:09;6.77;;;4.50;;
10643;SDS011;5370;50.132;8.626;2024-01-15T14:07:37;7.20;;;3.77;;
10643;SDS011;5370;50.132;8.626;2024-01-15T14:10:04;7.10;;;4.07;;
10643;SDS011;5370;50.132;8.626;2024-01-15T14:12:30;11.80;;;6.40;;
10643;SDS011;5370;50.132;8.626;2024-01-15T14:14:56;7.00;;;4.20;;
10643;SDS011;5370;50.132;8.626;2024-01-15T14:17:21;4.77;;;3.30;;
10643;SDS011;5370;50.132;8.626;2024-01-15T14:19:47;8.03;;;4.20;;
10643;SDS011;5370;50.132;8.626;2024-01-15T14:22:12;4.07;;;3.53;;
10643;SDS011;5370;50.132;8.626;2024-01-15T14:24:38;7.77;;;3.97;;
10643;SDS011;5370;50.132;8.626;2024-01-15T14:27:04;6.47;;;3.50;;
10643;SDS011;5370;50.132;8.626;2024-01-15T14:29:30;6.07;;;3.23;;
10643;SDS011;5370;50.132;8.626;2024-01-15T14:31:56;6.30;;;3.23;;
10643;SDS011;5370;50.132;8.626;2024-01-15T14:34:21;8.27;;;3.53;;
10643;SDS011;5370;50.132;8.626;2024-01-15T14:36:49;6.60;;;4.47;;
10643;SDS011;5370;50.132;8.626;2024-01-15T14:39:15;4.87;;;3.50;;
10643;SDS011;5370;50.132;8.626;2024-01-15T14:41:41;3.70;;;3.07;;
10643;SDS011;5370;50.132;8.626;2024-01-15T14:44:07;6.97;;;3.47;;
10643;SDS011;5370;50.132;8.626;2024-01-15T14:46:32;7.87;;;4.33;;
10643;SDS011;5370;50.132;8.626;2024-01-15T14:48:58;6.93;;;3.60;;